Kapelle-op-den-Bos, Belgium
Current Conditions -  °F | °C
As of 11:50 AM on Saturday 25 Oct 2014 (Local Time) from EBBR Reporting Station
Light Rain Light Rain  
Wind Chill: 55°   Ceiling: 800
Heat Index: 55°   Visibility: 2.5mi
Dew Point: 52°   Wind: 7mph
Humidity: 88%   Direction: 240°WSW
Pressure: 30.09"   Gusts: NA
Location:  51.01°N, 4.36°E
Report Text: EBBR 250950Z 24006KT 4000 -DZRA SCT006 BKN008 13/11 Q1019 NOSIG
Loading
Personal Weather Stations






























Interactive Weather Map
Tropical Storm Tracking
New forecast layout! Learn more

10-Day Weather Forecast

Advertisements
Track Severe Weather on mobile